createdAt,value
2019-04-26T00:00:34.673Z,0
2019-04-26T00:01:33.251Z,0
2019-04-26T00:02:31.822Z,0
2019-04-26T00:07:20.691Z,0
2019-04-26T00:08:18.806Z,0
2019-04-26T00:09:17.892Z,0
2019-04-26T00:10:16.060Z,0
2019-04-26T00:11:14.518Z,0
2019-04-26T00:12:13.055Z,0
2019-04-26T00:13:12.397Z,0
2019-04-26T00:14:11.240Z,0
2019-04-26T00:15:08.727Z,0
2019-04-26T00:16:07.263Z,0
2019-04-26T00:17:05.992Z,0
2019-04-26T00:18:04.736Z,0
2019-04-26T00:19:03.378Z,0
2019-04-26T00:20:02.088Z,0
2019-04-26T00:21:00.660Z,0
2019-04-26T00:21:59.219Z,0
2019-04-26T00:22:57.793Z,0
2019-04-26T00:23:56.513Z,0
2019-04-26T00:24:55.081Z,0
2019-04-26T00:25:53.749Z,0
2019-04-26T00:26:53.133Z,0
2019-04-26T00:27:51.674Z,0
2019-04-26T00:28:50.395Z,0
2019-04-26T00:29:49.050Z,0
2019-04-26T00:30:47.617Z,0
2019-04-26T00:31:46.166Z,0
2019-04-26T00:32:44.715Z,0
2019-04-26T00:33:43.315Z,0
2019-04-26T00:34:41.879Z,0
2019-04-26T00:35:47.153Z,0
2019-04-26T00:36:39.012Z,0
2019-04-26T00:37:37.584Z,0
2019-04-26T00:38:36.239Z,0
2019-04-26T00:39:34.980Z,0
2019-04-26T00:40:33.530Z,0
2019-04-26T00:41:32.161Z,0
2019-04-26T00:42:30.864Z,0
2019-04-26T00:43:29.438Z,0
2019-04-26T00:44:28.009Z,0
2019-04-26T00:45:26.591Z,0
2019-04-26T00:46:25.177Z,0
2019-04-26T00:47:23.945Z,0
2019-04-26T00:48:23.100Z,0
2019-04-26T00:49:21.345Z,0
2019-04-26T00:50:21.218Z,0
2019-04-26T00:51:19.292Z,0
2019-04-26T00:52:17.447Z,0
2019-04-26T00:53:16.095Z,0
2019-04-26T00:54:15.424Z,0
2019-04-26T00:55:14.116Z,0
2019-04-26T00:56:11.507Z,0
2019-04-26T00:57:10.278Z,0
2019-04-26T00:58:08.941Z,0
2019-04-26T00:59:07.465Z,0
2019-04-26T01:00:06.111Z,0
2019-04-26T01:01:04.759Z,0
2019-04-26T01:02:03.281Z,0
2019-04-26T01:03:01.883Z,0
2019-04-26T01:04:00.399Z,0
2019-04-26T01:04:58.935Z,0
2019-04-26T01:05:59.958Z,0
2019-04-26T01:06:56.190Z,0
2019-04-26T01:07:54.827Z,0
2019-04-26T01:08:53.408Z,0
2019-04-26T01:09:52.086Z,0
2019-04-26T01:10:50.908Z,0
2019-04-26T01:11:49.479Z,0
2019-04-26T01:12:48.009Z,0
2019-04-26T01:13:46.563Z,0
2019-04-26T01:14:45.153Z,0
2019-04-26T01:15:43.832Z,0
2019-04-26T01:16:42.456Z,0
2019-04-26T01:17:41.057Z,0
2019-04-26T01:18:39.607Z,0
2019-04-26T01:19:38.337Z,0
2019-04-26T01:20:36.911Z,0
2019-04-26T01:21:35.429Z,0
2019-04-26T01:22:34.061Z,0
2019-04-26T01:23:32.632Z,0
2019-04-26T01:24:31.172Z,0
2019-04-26T01:25:29.728Z,0
2019-04-26T01:28:09.978Z,0
2019-04-26T01:29:08.573Z,0
2019-04-26T01:30:07.131Z,0
2019-04-26T01:31:05.663Z,0
2019-04-26T01:32:04.325Z,0
2019-04-26T01:33:03.007Z,0
2019-04-26T01:34:01.540Z,0
2019-04-26T01:35:00.105Z,0
2019-04-26T01:35:58.728Z,0
2019-04-26T01:36:57.308Z,0
2019-04-26T01:37:55.874Z,0
2019-04-26T01:38:54.399Z,0
2019-04-26T01:39:52.967Z,0
2019-04-26T01:40:51.563Z,0
2019-04-26T01:41:50.212Z,0
2019-04-26T01:42:48.888Z,0
2019-04-26T01:43:47.446Z,0
2019-04-26T01:44:46.152Z,0
2019-04-26T01:45:44.857Z,0
2019-04-26T01:46:43.405Z,0
2019-04-26T01:47:41.975Z,0
2019-04-26T01:48:40.517Z,0
2019-04-26T01:49:39.037Z,0
2019-04-26T01:50:37.594Z,0
2019-04-26T01:51:36.231Z,0
2019-04-26T01:52:34.756Z,0
2019-04-26T01:53:33.303Z,0
2019-04-26T01:54:31.993Z,0
2019-04-26T01:55:31.191Z,0
2019-04-26T01:56:29.329Z,0
2019-04-26T01:57:27.817Z,0
2019-04-26T01:58:27.208Z,0
2019-04-26T01:59:25.342Z,0
2019-04-26T02:00:23.942Z,0
2019-04-26T02:01:23.589Z,0
2019-04-26T02:02:21.264Z,0
2019-04-26T02:03:19.369Z,0
2019-04-26T02:04:18.062Z,0
2019-04-26T02:05:16.805Z,0
2019-04-26T02:06:24.892Z,0
2019-04-26T02:07:13.978Z,0
2019-04-26T02:08:12.764Z,0
2019-04-26T02:09:11.321Z,0
2019-04-26T02:10:09.847Z,0
2019-04-26T02:11:08.460Z,0
2019-04-26T02:12:07.022Z,0
2019-04-26T02:13:05.654Z,0
2019-04-26T02:14:04.543Z,0
2019-04-26T02:15:03.134Z,0
2019-04-26T02:16:01.678Z,0
2019-04-26T02:17:00.361Z,0
2019-04-26T02:17:58.962Z,0
2019-04-26T02:18:57.510Z,0
2019-04-26T02:19:56.035Z,0
2019-04-26T02:20:54.598Z,0
2019-04-26T02:21:53.188Z,0
2019-04-26T02:22:51.833Z,0
2019-04-26T02:23:50.453Z,0
2019-04-26T02:24:49.137Z,0
2019-04-26T02:25:47.730Z,0
2019-04-26T02:26:46.554Z,0
2019-04-26T02:27:45.095Z,0
2019-04-26T02:28:43.623Z,0
2019-04-26T02:29:42.219Z,0
2019-04-26T02:30:40.797Z,0
2019-04-26T02:31:39.321Z,0
2019-04-26T02:32:37.854Z,0
2019-04-26T02:33:36.779Z,0
2019-04-26T02:34:37.247Z,0
2019-04-26T02:35:34.063Z,0
2019-04-26T02:36:47.733Z,0
2019-04-26T02:37:32.172Z,0
2019-04-26T02:38:31.364Z,0
2019-04-26T02:39:29.705Z,0
2019-04-26T02:40:28.038Z,0
2019-04-26T02:41:27.380Z,0
2019-04-26T02:42:24.194Z,0
2019-04-26T02:43:22.910Z,0
2019-04-26T02:44:22.063Z,0
2019-04-26T02:45:19.968Z,0
2019-04-26T02:46:18.606Z,0
2019-04-26T02:47:17.160Z,0
2019-04-26T02:48:15.716Z,0
2019-04-26T02:49:14.262Z,0
2019-04-26T02:50:12.936Z,0
2019-04-26T02:51:11.472Z,0
2019-04-26T02:52:10.041Z,0
2019-04-26T02:53:08.641Z,0
2019-04-26T02:54:07.195Z,0
2019-04-26T02:55:05.831Z,0
2019-04-26T02:56:04.500Z,0
2019-04-26T02:57:03.093Z,0
2019-04-26T02:58:01.661Z,0
2019-04-26T02:59:00.259Z,0
2019-04-26T02:59:58.933Z,0
2019-04-26T03:00:57.493Z,0
2019-04-26T03:01:56.213Z,0
2019-04-26T03:02:54.769Z,0
2019-04-26T03:03:53.770Z,0
2019-04-26T03:04:52.060Z,0
2019-04-26T03:05:50.709Z,0
2019-04-26T03:07:02.123Z,0
2019-04-26T03:07:47.931Z,0
2019-04-26T03:08:46.538Z,0
2019-04-26T03:09:45.089Z,0
2019-04-26T03:10:43.710Z,0
2019-04-26T03:11:43.316Z,0
2019-04-26T03:12:40.809Z,0
2019-04-26T03:13:40.207Z,0
2019-04-26T03:14:38.518Z,0
2019-04-26T03:15:37.087Z,0
2019-04-26T03:16:36.761Z,0
2019-04-26T03:17:34.044Z,0
2019-04-26T03:18:35.574Z,0
2019-04-26T03:19:36.143Z,0
2019-04-26T03:20:34.506Z,0
2019-04-26T03:21:32.602Z,0
2019-04-26T03:22:31.920Z,0
2019-04-26T03:23:42.772Z,0
2019-04-26T03:24:27.494Z,0
2019-04-26T03:25:26.126Z,0
2019-04-26T03:26:24.743Z,0
2019-04-26T03:27:23.333Z,0
2019-04-26T03:28:21.883Z,0
2019-04-26T03:29:20.555Z,0
2019-04-26T03:30:22.035Z,0
2019-04-26T03:31:24.421Z,0
2019-04-26T03:32:22.973Z,0
2019-04-26T03:33:21.784Z,0
2019-04-26T03:34:20.304Z,0
2019-04-26T03:35:20.580Z,0
2019-04-26T03:36:19.345Z,0
2019-04-26T03:37:20.573Z,0
2019-04-26T03:38:16.428Z,0
2019-04-26T03:39:15.107Z,0
2019-04-26T03:40:13.660Z,0
2019-04-26T03:41:12.419Z,0
2019-04-26T03:42:11.041Z,0
2019-04-26T03:43:09.592Z,0
2019-04-26T03:44:08.169Z,0
2019-04-26T03:45:06.711Z,0
2019-04-26T03:46:05.252Z,0
2019-04-26T03:47:03.987Z,0
2019-04-26T03:48:02.760Z,0
2019-04-26T03:49:01.336Z,0
2019-04-26T03:49:59.883Z,0
2019-04-26T03:50:58.658Z,0
2019-04-26T03:51:57.215Z,0
2019-04-26T03:52:55.771Z,0
2019-04-26T03:53:54.331Z,0
2019-04-26T03:54:52.923Z,0
2019-04-26T03:55:51.480Z,0
2019-04-26T03:56:50.091Z,0
2019-04-26T03:57:48.788Z,0
2019-04-26T03:58:47.389Z,0
2019-04-26T03:59:46.038Z,0
2019-04-26T04:00:45.546Z,0
2019-04-26T04:01:44.791Z,0
2019-04-26T04:02:43.350Z,0
2019-04-26T04:03:43.139Z,0
2019-04-26T04:04:41.025Z,0
2019-04-26T04:05:39.630Z,0
2019-04-26T04:06:49.792Z,0
2019-04-26T04:07:37.612Z,0
2019-04-26T04:08:33.530Z,0
2019-04-26T04:09:32.095Z,0
2019-04-26T04:10:30.981Z,0
2019-04-26T04:11:29.538Z,0
2019-04-26T04:12:28.086Z,0
2019-04-26T04:13:26.650Z,0
2019-04-26T04:14:25.233Z,0
2019-04-26T04:15:23.802Z,0
2019-04-26T04:16:22.430Z,0
2019-04-26T04:17:21.038Z,0
2019-04-26T04:18:19.585Z,0
2019-04-26T04:19:18.288Z,0
2019-04-26T04:20:17.115Z,0
2019-04-26T04:21:15.682Z,0
2019-04-26T04:22:14.280Z,0
2019-04-26T04:23:12.880Z,0
2019-04-26T04:24:11.443Z,0
2019-04-26T04:25:10.135Z,0
2019-04-26T04:26:08.838Z,0
2019-04-26T04:27:07.415Z,0
2019-04-26T04:28:05.940Z,0
2019-04-26T04:29:04.682Z,0
2019-04-26T04:30:03.236Z,0
2019-04-26T04:31:01.809Z,0
2019-04-26T04:32:00.393Z,0
2019-04-26T04:32:58.955Z,0
2019-04-26T04:33:57.519Z,0
2019-04-26T04:34:56.154Z,0
2019-04-26T04:35:54.878Z,0
2019-04-26T04:36:53.869Z,0
2019-04-26T04:38:03.820Z,0
2019-04-26T04:38:50.740Z,0
2019-04-26T04:39:49.896Z,0
2019-04-26T04:40:49.013Z,0
2019-04-26T04:41:47.110Z,0
2019-04-26T04:42:45.854Z,0
2019-04-26T04:43:46.891Z,0
2019-04-26T04:44:44.408Z,0
2019-04-26T04:45:42.378Z,0
2019-04-26T04:46:41.700Z,0
2019-04-26T04:47:38.667Z,0
2019-04-26T04:48:37.225Z,0
2019-04-26T04:49:35.877Z,0
2019-04-26T04:50:34.534Z,0
2019-04-26T04:51:33.128Z,0
2019-04-26T04:52:31.722Z,0
2019-04-26T04:53:30.360Z,0
2019-04-26T04:54:29.070Z,0
2019-04-26T04:55:27.613Z,0
2019-04-26T04:56:26.219Z,0
2019-04-26T04:57:24.801Z,0
2019-04-26T04:58:24.060Z,0
2019-04-26T04:59:22.781Z,0
2019-04-26T05:00:21.327Z,0
2019-04-26T05:01:19.878Z,0
2019-04-26T05:02:18.461Z,0
2019-04-26T05:03:17.016Z,0
2019-04-26T05:04:15.551Z,0
2019-04-26T05:05:14.252Z,0
2019-04-26T05:06:12.943Z,0
2019-04-26T05:07:11.510Z,0
2019-04-26T05:08:10.135Z,0
2019-04-26T05:09:08.898Z,0
2019-04-26T05:10:07.496Z,0
2019-04-26T05:11:06.066Z,5
2019-04-26T05:12:04.614Z,5
2019-04-26T05:13:03.110Z,5
2019-04-26T05:14:01.643Z,5
2019-04-26T05:15:00.336Z,5
2019-04-26T05:15:59.040Z,5
2019-04-26T05:16:57.579Z,5
2019-04-26T05:17:56.259Z,5
2019-04-26T05:18:55.023Z,5
2019-04-26T05:19:53.559Z,5
2019-04-26T05:20:53.269Z,5
2019-04-26T05:21:50.904Z,5
2019-04-26T05:22:49.235Z,5
2019-04-26T05:23:48.890Z,5
2019-04-26T05:24:47.057Z,5
2019-04-26T05:25:45.122Z,5
2019-04-26T05:26:43.428Z,5
2019-04-26T05:27:42.166Z,5
2019-04-26T05:28:40.940Z,5
2019-04-26T05:29:39.516Z,5
2019-04-26T05:30:38.088Z,5
2019-04-26T05:31:36.714Z,5
2019-04-26T05:32:35.279Z,5
2019-04-26T05:33:33.838Z,5
2019-04-26T05:34:32.417Z,5
2019-04-26T05:35:31.013Z,5
2019-04-26T05:36:29.558Z,5
2019-04-26T05:37:28.243Z,5
2019-04-26T05:38:26.898Z,10
2019-04-26T05:39:25.458Z,10
2019-04-26T05:40:24.127Z,10
2019-04-26T05:41:22.832Z,10
2019-04-26T05:42:21.397Z,10
2019-04-26T05:43:19.917Z,10
2019-04-26T05:44:18.493Z,10
2019-04-26T05:45:17.123Z,15
2019-04-26T05:46:15.676Z,15
2019-04-26T05:47:14.374Z,15
2019-04-26T05:48:13.102Z,15
2019-04-26T05:49:11.645Z,20
2019-04-26T05:50:10.351Z,20
2019-04-26T05:51:09.040Z,20
2019-04-26T05:52:10.482Z,20
2019-04-26T05:53:06.238Z,20
2019-04-26T05:54:04.803Z,20
2019-04-26T05:55:03.354Z,20
2019-04-26T05:56:02.468Z,20
2019-04-26T05:57:00.504Z,20
2019-04-26T05:57:59.109Z,20
2019-04-26T05:59:00.262Z,20
2019-04-26T05:59:56.734Z,15
2019-04-26T06:00:55.733Z,15
2019-04-26T06:01:54.778Z,10
2019-04-26T06:02:52.691Z,15
2019-04-26T06:03:51.019Z,15
2019-04-26T06:04:49.459Z,15
2019-04-26T06:05:48.216Z,15
2019-04-26T06:06:46.923Z,15
2019-04-26T06:07:45.477Z,10
2019-04-26T06:08:44.068Z,10
2019-04-26T06:09:42.836Z,10
2019-04-26T06:10:41.381Z,10
2019-04-26T06:11:39.929Z,10
2019-04-26T06:12:38.521Z,10
2019-04-26T06:13:37.082Z,10
2019-04-26T06:14:35.678Z,10
2019-04-26T06:15:34.354Z,10
2019-04-26T06:16:33.060Z,10
2019-04-26T06:17:33.636Z,10
2019-04-26T06:18:30.163Z,10
2019-04-26T06:19:28.845Z,5
2019-04-26T06:20:27.418Z,5
2019-04-26T06:21:26.063Z,5
2019-04-26T06:22:24.625Z,5
2019-04-26T06:23:23.142Z,5
2019-04-26T06:24:21.735Z,5
2019-04-26T06:25:20.531Z,10
2019-04-26T06:26:19.120Z,10
2019-04-26T06:27:17.740Z,10
2019-04-26T06:28:16.404Z,10
2019-04-26T06:29:15.136Z,10
2019-04-26T06:30:13.688Z,10
2019-04-26T06:31:12.286Z,10
2019-04-26T06:32:10.855Z,10
2019-04-26T06:33:10.336Z,15
2019-04-26T06:34:08.098Z,15
2019-04-26T06:35:06.609Z,15
2019-04-26T06:36:05.161Z,15
2019-04-26T06:37:04.347Z,15
2019-04-26T06:38:02.348Z,15
2019-04-26T06:39:02.031Z,15
2019-04-26T06:39:59.931Z,15
2019-04-26T06:40:58.214Z,15
2019-04-26T06:44:36.999Z,20
2019-04-26T06:45:35.566Z,20
2019-04-26T06:46:34.152Z,20
2019-04-26T06:47:32.827Z,20
2019-04-26T06:48:31.372Z,20
2019-04-26T06:49:30.049Z,20
2019-04-26T06:50:28.699Z,25
2019-04-26T06:51:27.270Z,20
2019-04-26T06:52:25.825Z,20
2019-04-26T06:53:24.509Z,20
2019-04-26T06:54:23.215Z,20
2019-04-26T06:55:21.786Z,20
2019-04-26T06:56:20.462Z,20
2019-04-26T06:57:19.125Z,20
2019-04-26T06:58:17.667Z,20
2019-04-26T06:59:17.288Z,20
2019-04-26T07:00:14.948Z,15
2019-04-26T07:01:13.527Z,15
2019-04-26T07:02:12.116Z,20
2019-04-26T07:03:10.726Z,15
2019-04-26T07:04:09.956Z,15
2019-04-26T07:05:07.807Z,15
2019-04-26T07:06:06.627Z,15
2019-04-26T07:07:04.936Z,15
2019-04-26T07:08:04.863Z,15
2019-04-26T07:09:02.749Z,15
2019-04-26T07:10:01.863Z,15
2019-04-26T07:11:00.549Z,10
2019-04-26T07:11:59.347Z,15
2019-04-26T07:12:56.825Z,15
2019-04-26T07:13:55.412Z,15
2019-04-26T07:14:53.964Z,15
2019-04-26T07:15:52.495Z,15
2019-04-26T07:16:51.044Z,15
2019-04-26T07:17:49.600Z,15
2019-04-26T07:18:48.301Z,20
2019-04-26T07:19:46.902Z,20
2019-04-26T07:20:45.451Z,20
2019-04-26T07:21:44.111Z,20
2019-04-26T07:22:43.000Z,15
2019-04-26T07:23:41.570Z,20
2019-04-26T07:24:40.102Z,20
2019-04-26T07:25:38.665Z,20
2019-04-26T07:26:37.187Z,20
2019-04-26T07:27:35.851Z,25
2019-04-26T07:28:34.557Z,25
2019-04-26T07:29:33.154Z,25
2019-04-26T07:30:31.775Z,30
2019-04-26T07:31:30.352Z,30
2019-04-26T07:32:28.999Z,25
2019-04-26T07:33:27.550Z,30
2019-04-26T07:34:26.183Z,25
2019-04-26T07:35:24.756Z,25
2019-04-26T07:36:23.352Z,25
2019-04-26T07:37:21.905Z,25
2019-04-26T07:40:28.134Z,15
2019-04-26T07:41:26.668Z,15
2019-04-26T07:42:25.232Z,15
2019-04-26T07:43:23.834Z,10
2019-04-26T07:44:22.448Z,10
2019-04-26T07:45:21.037Z,10
2019-04-26T07:46:19.609Z,10
2019-04-26T07:47:18.292Z,10
2019-04-26T07:48:16.891Z,10
2019-04-26T07:49:15.492Z,10
2019-04-26T07:50:14.247Z,10
2019-04-26T07:51:13.645Z,15
2019-04-26T07:52:11.341Z,15
2019-04-26T07:59:17.008Z,25
2019-04-26T08:00:15.588Z,25
2019-04-26T08:01:14.224Z,25
2019-04-26T08:02:13.393Z,25
2019-04-26T08:03:11.545Z,25
2019-04-26T08:04:10.104Z,25
2019-04-26T08:08:49.138Z,25
2019-04-26T08:09:59.460Z,25
2019-04-26T08:10:46.308Z,25
2019-04-26T08:11:44.941Z,25
2019-04-26T08:12:43.491Z,25
2019-04-26T08:13:42.108Z,25
2019-04-26T08:14:40.773Z,25
2019-04-26T08:15:39.324Z,25
2019-04-26T08:16:37.849Z,25
2019-04-26T08:17:36.632Z,30
2019-04-26T08:18:35.190Z,30
2019-04-26T08:19:33.776Z,30
2019-04-26T08:20:33.111Z,30
2019-04-26T08:21:31.960Z,35
2019-04-26T08:22:32.355Z,35
2019-04-26T08:23:39.450Z,40
2019-04-26T08:26:20.080Z,35
2019-04-26T08:29:02.252Z,35
2019-04-26T08:30:03.277Z,35
2019-04-26T08:30:59.457Z,35
2019-04-26T08:31:58.845Z,40
2019-04-26T08:32:56.836Z,45
2019-04-26T08:33:55.369Z,45
2019-04-26T08:34:54.279Z,50
2019-04-26T08:35:53.312Z,50
2019-04-26T08:36:51.304Z,50
2019-04-26T08:37:49.882Z,50
2019-04-26T08:38:48.737Z,55
2019-04-26T08:39:50.411Z,55
2019-04-26T08:40:45.567Z,50
2019-04-26T08:41:44.136Z,55
2019-04-26T08:42:42.772Z,50
2019-04-26T08:43:41.320Z,50
2019-04-26T08:44:39.925Z,50
2019-04-26T08:45:40.426Z,50
2019-04-26T08:46:37.291Z,45
2019-04-26T08:47:35.652Z,45
2019-04-26T08:48:34.311Z,45
2019-04-26T08:49:35.026Z,45
2019-04-26T08:50:31.609Z,40
2019-04-26T08:51:30.200Z,40
2019-04-26T08:52:28.751Z,45
2019-04-26T08:53:27.316Z,45
2019-04-26T08:54:25.900Z,45
2019-04-26T08:55:24.508Z,45
2019-04-26T08:56:23.178Z,45
2019-04-26T08:57:21.758Z,45
2019-04-26T08:58:20.434Z,45
2019-04-26T08:59:19.113Z,45
2019-04-26T09:00:17.717Z,50
2019-04-26T09:01:16.284Z,45
2019-04-26T09:02:14.891Z,50
2019-04-26T09:03:13.457Z,50
2019-04-26T09:04:12.219Z,50
2019-04-26T09:05:10.946Z,55
2019-04-26T09:06:09.600Z,50
2019-04-26T09:07:08.273Z,45
2019-04-26T09:08:06.944Z,45
2019-04-26T09:09:05.504Z,45
2019-04-26T09:10:10.550Z,45
2019-04-26T09:11:02.801Z,50
2019-04-26T09:12:03.820Z,50
2019-04-26T09:13:00.013Z,40
2019-04-26T09:13:58.762Z,45
2019-04-26T09:14:57.400Z,40
2019-04-26T09:15:55.973Z,30
2019-04-26T09:16:54.548Z,30
2019-04-26T09:17:53.151Z,25
2019-04-26T09:18:53.706Z,20
2019-04-26T09:19:50.360Z,15
2019-04-26T09:20:48.961Z,15
2019-04-26T09:21:51.705Z,15
2019-04-26T09:22:46.075Z,15
2019-04-26T09:23:50.798Z,20
2019-04-26T09:24:45.421Z,25
2019-04-26T09:25:42.014Z,25
2019-04-26T09:26:42.311Z,25
2019-04-26T09:27:39.273Z,25
2019-04-26T09:28:37.837Z,25
2019-04-26T09:29:36.373Z,30
2019-04-26T09:30:38.429Z,30
2019-04-26T09:31:33.469Z,30
2019-04-26T09:32:32.023Z,30
2019-04-26T09:33:31.621Z,35
2019-04-26T09:34:29.289Z,40
2019-04-26T09:35:27.824Z,50
2019-04-26T09:36:26.584Z,50
2019-04-26T09:37:25.279Z,50
2019-04-26T09:38:23.825Z,45
2019-04-26T09:39:22.422Z,45
2019-04-26T09:40:22.626Z,60
2019-04-26T09:41:19.547Z,60
2019-04-26T09:42:18.091Z,60
2019-04-26T09:43:16.878Z,55
2019-04-26T09:44:15.496Z,50
2019-04-26T09:45:14.170Z,45
2019-04-26T09:46:12.940Z,40
2019-04-26T09:47:11.543Z,45
2019-04-26T09:48:10.123Z,50
2019-04-26T09:50:50.459Z,60
2019-04-26T09:53:30.811Z,70
2019-04-26T09:57:48.147Z,85
2019-04-26T10:14:11.221Z,90
2019-04-26T10:15:09.795Z,85
2019-04-26T10:19:52.551Z,80
2019-04-26T10:20:51.187Z,85
2019-04-26T10:21:49.731Z,85
2019-04-26T10:22:48.343Z,85
2019-04-26T10:23:46.975Z,80
2019-04-26T10:24:45.556Z,70
2019-04-26T10:25:47.259Z,70
2019-04-26T10:26:42.808Z,70
2019-04-26T10:27:42.485Z,70
2019-04-26T10:28:39.898Z,70
2019-04-26T10:29:38.718Z,65
2019-04-26T10:30:38.236Z,65
2019-04-26T10:31:36.074Z,70
2019-04-26T10:32:34.616Z,65
2019-04-26T10:33:36.429Z,65
2019-04-26T10:34:31.717Z,65
2019-04-26T10:35:30.240Z,70
2019-04-26T10:36:30.045Z,70
2019-04-26T10:37:38.862Z,70
2019-04-26T10:38:26.025Z,65
2019-04-26T10:39:24.811Z,65
2019-04-26T10:40:34.955Z,70
2019-04-26T10:41:21.915Z,75
2019-04-26T10:42:20.782Z,80
2019-04-26T10:43:19.312Z,80
2019-04-26T10:44:17.881Z,85
2019-04-26T10:45:16.474Z,85
2019-04-26T10:46:15.089Z,85
2019-04-26T10:47:15.712Z,85
2019-04-26T10:48:13.847Z,85
2019-04-26T10:49:12.101Z,90
2019-04-26T10:50:09.557Z,90
2019-04-26T10:51:08.938Z,90
2019-04-26T10:52:06.839Z,85
2019-04-26T10:53:06.155Z,85
2019-04-26T10:54:05.825Z,85
2019-04-26T10:55:02.573Z,85
2019-04-26T10:56:01.088Z,85
2019-04-26T10:56:59.653Z,85
2019-04-26T10:57:58.327Z,85
2019-04-26T10:58:56.981Z,80
2019-04-26T10:59:55.544Z,75
2019-04-26T11:00:54.167Z,75
2019-04-26T11:01:52.796Z,75
2019-04-26T11:02:51.407Z,75
2019-04-26T11:03:49.939Z,80
2019-04-26T11:04:48.581Z,80
2019-04-26T11:05:49.258Z,75
2019-04-26T11:06:45.683Z,75
2019-04-26T11:07:44.203Z,80
2019-04-26T11:08:42.799Z,75
2019-04-26T11:09:41.365Z,70
2019-04-26T11:10:48.292Z,70
2019-04-26T11:11:38.679Z,80
2019-04-26T11:12:39.548Z,75
2019-04-26T11:13:35.898Z,70
2019-04-26T11:14:34.760Z,75
2019-04-26T11:15:34.064Z,70
2019-04-26T11:16:31.866Z,70
2019-04-26T11:17:30.454Z,70
2019-04-26T11:18:28.991Z,75
2019-04-26T11:19:27.587Z,75
2019-04-26T11:20:26.265Z,75
2019-04-26T11:21:25.122Z,65
2019-04-26T11:22:29.145Z,60
2019-04-26T11:23:22.308Z,65
2019-04-26T11:24:21.005Z,60
2019-04-26T11:25:19.514Z,60
2019-04-26T11:26:18.038Z,60
2019-04-26T11:27:16.620Z,55
2019-04-26T11:28:17.082Z,60
2019-04-26T11:29:13.756Z,55
2019-04-26T11:30:19.037Z,55
2019-04-26T11:31:11.058Z,50
2019-04-26T11:32:09.603Z,50
2019-04-26T11:33:10.945Z,50
2019-04-26T11:34:07.164Z,45
2019-04-26T11:35:05.718Z,45
2019-04-26T11:37:50.479Z,45
2019-04-26T11:38:46.727Z,45
2019-04-26T11:39:45.476Z,45
2019-04-26T11:40:44.292Z,45
2019-04-26T11:41:42.635Z,45
2019-04-26T11:42:41.832Z,40
2019-04-26T11:43:39.768Z,40
2019-04-26T11:44:38.501Z,45
2019-04-26T11:45:37.191Z,45
2019-04-26T11:46:44.420Z,45
2019-04-26T11:47:37.038Z,45
2019-04-26T11:48:33.239Z,50
2019-04-26T11:49:31.747Z,50
2019-04-26T11:50:30.306Z,50
2019-04-26T11:51:28.868Z,55
2019-04-26T11:52:27.394Z,60
2019-04-26T11:53:26.049Z,70
2019-04-26T11:54:24.618Z,80
2019-04-26T11:55:25.216Z,85
2019-04-26T11:56:21.865Z,80
2019-04-26T11:57:20.428Z,85
2019-04-26T11:58:22.379Z,85
2019-04-26T11:59:17.609Z,90
2019-04-26T12:00:16.162Z,90
2019-04-26T12:01:14.947Z,90
2019-04-26T12:02:16.073Z,95
2019-04-26T12:03:12.030Z,95
2019-04-26T12:04:10.785Z,95
2019-04-26T12:05:09.347Z,95
2019-04-26T12:06:07.891Z,95
2019-04-26T12:07:06.508Z,95
2019-04-26T12:08:05.176Z,90
2019-04-26T12:09:03.747Z,90
2019-04-26T12:10:05.725Z,85
2019-04-26T12:11:01.038Z,70
2019-04-26T12:12:04.647Z,65
2019-04-26T12:13:05.382Z,55
2019-04-26T12:13:59.306Z,40
2019-04-26T12:14:55.546Z,40
2019-04-26T12:15:54.117Z,45
2019-04-26T12:16:58.710Z,50
2019-04-26T12:17:58.278Z,50
2019-04-26T12:18:50.347Z,45
2019-04-26T12:19:52.168Z,45
2019-04-26T12:20:47.730Z,45
2019-04-26T12:21:46.467Z,50
2019-04-26T12:22:45.267Z,50
2019-04-26T12:23:43.932Z,55
2019-04-26T12:24:42.569Z,65
2019-04-26T12:25:43.230Z,75
2019-04-26T12:26:42.944Z,80
2019-04-26T12:27:38.394Z,85
2019-04-26T12:28:39.867Z,70
2019-04-26T12:29:35.720Z,55
2019-04-26T12:30:34.302Z,50
2019-04-26T12:31:32.951Z,45
2019-04-26T12:32:31.529Z,45
2019-04-26T12:33:30.083Z,45
2019-04-26T12:34:28.872Z,45
2019-04-26T12:35:29.911Z,45
2019-04-26T12:36:26.034Z,40
2019-04-26T12:37:24.644Z,40
2019-04-26T12:38:24.099Z,45
2019-04-26T12:39:21.947Z,55
2019-04-26T12:40:20.590Z,60
2019-04-26T12:41:22.181Z,65
2019-04-26T12:42:17.752Z,65
2019-04-26T12:43:19.927Z,60
2019-04-26T12:44:15.186Z,60
2019-04-26T12:45:16.635Z,70
2019-04-26T12:46:14.156Z,70
2019-04-26T12:47:11.188Z,65
2019-04-26T12:48:12.255Z,65
2019-04-26T12:49:08.336Z,65
2019-04-26T12:50:07.048Z,60
2019-04-26T12:51:08.097Z,65
2019-04-26T12:52:04.157Z,65
2019-04-26T12:53:02.906Z,65
2019-04-26T12:54:03.618Z,60
2019-04-26T12:55:00.100Z,60
2019-04-26T12:55:58.780Z,55
2019-04-26T12:56:57.341Z,60
2019-04-26T12:57:55.910Z,60
2019-04-26T12:58:54.471Z,60
2019-04-26T12:59:53.020Z,65
2019-04-26T13:06:50.963Z,75
2019-04-26T13:09:26.428Z,75
2019-04-26T13:15:07.619Z,70
2019-04-26T13:16:06.153Z,70
2019-04-26T13:17:04.735Z,70
2019-04-26T13:18:03.341Z,70
2019-04-26T13:19:01.887Z,65
2019-04-26T13:25:55.357Z,65
2019-04-26T13:26:51.903Z,60
2019-04-26T13:27:50.428Z,60
2019-04-26T13:30:57.729Z,55
2019-04-26T13:31:56.268Z,55
2019-04-26T13:32:54.987Z,55
2019-04-26T13:33:53.538Z,50
2019-04-26T13:34:52.076Z,50
2019-04-26T13:36:02.159Z,45
2019-04-26T13:36:49.349Z,45
2019-04-26T13:37:48.098Z,45
2019-04-26T13:38:46.765Z,45
2019-04-26T13:39:45.297Z,45
2019-04-26T13:40:43.921Z,45
2019-04-26T13:41:42.456Z,50
2019-04-26T13:42:40.953Z,45
2019-04-26T13:43:39.493Z,45
2019-04-26T13:44:39.316Z,45
2019-04-26T13:45:36.830Z,50
2019-04-26T13:46:35.475Z,50
2019-04-26T13:47:34.097Z,50
2019-04-26T13:48:32.663Z,50
2019-04-26T13:49:31.236Z,45
2019-04-26T13:50:29.829Z,45
2019-04-26T13:51:28.390Z,45
2019-04-26T13:52:26.973Z,40
2019-04-26T13:53:25.723Z,40
2019-04-26T13:54:24.047Z,40
2019-04-26T13:55:25.305Z,40
2019-04-26T13:56:21.177Z,40
2019-04-26T13:57:19.708Z,40
2019-04-26T13:58:20.451Z,40
2019-04-26T13:59:17.011Z,40
2019-04-26T14:00:15.593Z,40
2019-04-26T14:01:14.463Z,40
2019-04-26T14:02:12.872Z,45
2019-04-26T14:03:11.600Z,45
2019-04-26T14:04:10.181Z,45
2019-04-26T14:05:11.038Z,45
2019-04-26T14:06:07.436Z,40
2019-04-26T14:07:06.066Z,40
2019-04-26T14:08:04.672Z,40
2019-04-26T14:09:03.333Z,45
2019-04-26T14:10:01.875Z,40
2019-04-26T14:11:00.506Z,40
2019-04-26T14:12:02.042Z,40
2019-04-26T14:12:57.644Z,40
2019-04-26T14:13:59.930Z,40
2019-04-26T14:14:54.788Z,40
2019-04-26T14:15:53.415Z,40
2019-04-26T14:16:55.381Z,45
2019-04-26T14:17:50.733Z,45
2019-04-26T14:18:49.301Z,50
2019-04-26T14:19:49.415Z,55
2019-04-26T14:20:46.444Z,55
2019-04-26T14:21:45.153Z,55
2019-04-26T14:22:43.770Z,60
2019-04-26T14:23:45.227Z,60
2019-04-26T14:24:41.053Z,60
2019-04-26T14:25:39.587Z,60
2019-04-26T14:26:39.791Z,60
2019-04-26T14:27:36.702Z,65
2019-04-26T14:28:35.268Z,65
2019-04-26T14:29:33.999Z,65
2019-04-26T14:30:32.452Z,65
2019-04-26T14:31:31.081Z,65
2019-04-26T14:32:29.676Z,60
2019-04-26T14:33:30.743Z,60
2019-04-26T14:34:26.948Z,60
2019-04-26T14:35:25.656Z,65
2019-04-26T14:36:26.682Z,60
2019-04-26T14:37:23.050Z,65
2019-04-26T14:38:27.491Z,65
2019-04-26T14:39:33.566Z,70
2019-04-26T14:40:18.980Z,70
2019-04-26T14:41:22.035Z,75
2019-04-26T14:42:16.392Z,70
2019-04-26T14:43:18.204Z,65
2019-04-26T14:44:15.531Z,55
2019-04-26T14:45:22.585Z,45
2019-04-26T14:46:14.383Z,40
2019-04-26T14:47:14.069Z,35
2019-04-26T14:48:19.758Z,35
2019-04-26T14:49:06.143Z,30
2019-04-26T14:50:13.597Z,30
2019-04-26T14:51:08.024Z,30
2019-04-26T14:52:02.039Z,35
2019-04-26T14:53:02.240Z,35
2019-04-26T14:53:59.470Z,40
2019-04-26T14:54:58.067Z,40
2019-04-26T14:55:56.623Z,35
2019-04-26T14:56:55.187Z,35
2019-04-26T14:57:54.099Z,40
2019-04-26T14:58:52.492Z,50
2019-04-26T14:59:52.774Z,50
2019-04-26T15:00:51.354Z,50
2019-04-26T15:01:48.411Z,50
2019-04-26T15:02:48.476Z,50
2019-04-26T15:03:45.882Z,50
2019-04-26T15:04:44.596Z,45
2019-04-26T15:05:46.367Z,45
2019-04-26T15:06:42.360Z,40
2019-04-26T15:07:49.342Z,40
2019-04-26T15:08:40.448Z,40
2019-04-26T15:09:37.772Z,40
2019-04-26T15:10:44.143Z,40
2019-04-26T15:11:36.071Z,40
2019-04-26T15:12:45.620Z,45
2019-04-26T15:13:34.712Z,45
2019-04-26T15:14:30.666Z,50
2019-04-26T15:15:31.862Z,55
2019-04-26T15:16:27.766Z,55
2019-04-26T15:17:26.686Z,55
2019-04-26T15:18:25.098Z,60
2019-04-26T15:21:05.460Z,65